createdAt,value
2019-04-14T00:02:55.486Z,4.97
2019-04-14T00:05:23.254Z,4.98
2019-04-14T00:07:50.584Z,5.01
2019-04-14T00:10:18.711Z,5.01
2019-04-14T00:12:49.810Z,5.15
2019-04-14T00:15:27.542Z,5.32
2019-04-14T00:17:47.872Z,5.30
2019-04-14T00:20:14.804Z,5.30
2019-04-14T00:22:42.478Z,5.03
2019-04-14T00:25:09.453Z,5.03
2019-04-14T00:27:39.249Z,5.01
2019-04-14T00:30:05.935Z,5.09
2019-04-14T00:32:35.454Z,4.94
2019-04-14T00:35:12.374Z,5.01
2019-04-14T00:38:06.272Z,5.01
2019-04-14T00:40:43.262Z,5.16
2019-04-14T00:43:35.239Z,5.16
2019-04-14T00:46:07.953Z,4.95
2019-04-14T00:48:35.097Z,4.81
2019-04-14T00:51:02.781Z,4.80
2019-04-14T00:53:29.664Z,4.81
2019-04-14T00:55:57.532Z,4.82
2019-04-14T00:58:26.285Z,5.04
2019-04-14T01:00:53.842Z,4.84
2019-04-14T01:03:21.949Z,4.84
2019-04-14T01:05:50.274Z,4.87
2019-04-14T01:08:18.528Z,4.87
2019-04-14T01:10:45.571Z,4.72
2019-04-14T01:13:14.136Z,4.61
2019-04-14T01:15:51.459Z,4.61
2019-04-14T01:18:10.038Z,4.57
2019-04-14T01:20:37.053Z,4.70
2019-04-14T01:23:04.174Z,5.05
2019-04-14T01:25:32.363Z,4.55
2019-04-14T01:28:02.563Z,4.55
2019-04-14T01:30:30.537Z,4.47
2019-04-14T01:32:57.419Z,4.42
2019-04-14T01:35:24.904Z,4.78
2019-04-14T01:37:52.883Z,4.78
2019-04-14T01:40:20.697Z,4.82
2019-04-14T01:42:48.500Z,4.47
2019-04-14T01:45:18.517Z,4.34
2019-04-14T01:47:46.648Z,4.26
2019-04-14T01:50:14.849Z,4.26
2019-04-14T01:52:52.298Z,4.18
2019-04-14T01:55:31.278Z,4.10
2019-04-14T01:58:18.865Z,4.03
2019-04-14T02:01:08.422Z,3.98
2019-04-14T02:03:36.559Z,3.93
2019-04-14T02:06:04.546Z,3.92
2019-04-14T02:08:31.512Z,3.97
2019-04-14T02:10:58.781Z,3.95
2019-04-14T02:13:26.818Z,3.93
2019-04-14T02:15:54.982Z,4.17
2019-04-14T02:18:22.908Z,4.50
2019-04-14T02:20:51.062Z,4.51
2019-04-14T02:23:21.494Z,4.52
2019-04-14T02:25:49.371Z,4.80
2019-04-14T02:28:17.770Z,4.82
2019-04-14T02:30:53.863Z,4.90
2019-04-14T02:33:44.642Z,4.93
2019-04-14T02:36:19.883Z,4.88
2019-04-14T02:41:14.215Z,4.99
2019-04-14T02:43:57.673Z,4.99
2019-04-14T02:46:02.448Z,4.95
2019-04-14T02:56:16.574Z,5.27
2019-04-14T02:58:48.403Z,5.28
2019-04-14T03:01:09.967Z,4.91
2019-04-14T03:03:31.754Z,4.24
2019-04-14T03:06:10.321Z,4.30
2019-04-14T03:08:31.328Z,4.30
2019-04-14T03:11:04.080Z,4.18
2019-04-14T03:13:30.820Z,4.18
2019-04-14T03:15:59.027Z,4.09
2019-04-14T03:18:44.866Z,4.24
2019-04-14T03:21:52.748Z,4.11
2019-04-14T03:24:31.913Z,4.16
2019-04-14T03:29:43.379Z,4.74
2019-04-14T03:34:42.994Z,4.88
2019-04-14T03:37:30.683Z,4.96
2019-04-14T03:42:08.701Z,5.06
2019-04-14T03:44:44.993Z,5.06
2019-04-14T03:47:05.265Z,5.27
2019-04-14T03:49:40.547Z,5.27
2019-04-14T03:51:57.665Z,5.34
2019-04-14T03:54:29.099Z,5.33
2019-04-14T03:56:47.087Z,5.36
2019-04-14T03:59:15.189Z,5.47
2019-04-14T04:01:41.952Z,5.47
2019-04-14T04:04:09.655Z,5.10
2019-04-14T04:06:37.806Z,5.10
2019-04-14T04:09:06.269Z,5.14
2019-04-14T04:11:34.375Z,5.12
2019-04-14T04:14:01.344Z,5.29
2019-04-14T04:16:41.918Z,5.29
2019-04-14T04:19:19.622Z,5.16
2019-04-14T04:22:15.080Z,5.03
2019-04-14T04:24:50.030Z,5.00
2019-04-14T04:27:30.896Z,4.86
2019-04-14T04:30:20.829Z,4.94
2019-04-14T04:33:15.463Z,4.80
2019-04-14T04:35:47.907Z,4.71
2019-04-14T04:38:31.295Z,4.67
2019-04-14T04:40:59.303Z,4.79
2019-04-14T04:43:27.573Z,4.54
2019-04-14T04:45:54.447Z,4.43
2019-04-14T04:48:21.782Z,4.40
2019-04-14T04:50:49.792Z,4.40
2019-04-14T04:53:17.984Z,4.44
2019-04-14T04:55:46.084Z,4.53
2019-04-14T04:58:13.393Z,4.72
2019-04-14T05:00:40.143Z,4.65
2019-04-14T05:03:07.927Z,4.66
2019-04-14T05:06:22.306Z,4.75
2019-04-14T05:08:52.366Z,4.95
2019-04-14T05:11:29.671Z,4.81
2019-04-14T05:13:57.782Z,4.56
2019-04-14T05:16:25.949Z,4.56
2019-04-14T05:18:53.129Z,4.65
2019-04-14T05:21:19.935Z,4.57
2019-04-14T05:23:47.425Z,4.41
2019-04-14T05:26:15.487Z,4.53
2019-04-14T05:28:42.495Z,4.53
2019-04-14T05:31:10.701Z,4.42
2019-04-14T05:33:38.302Z,4.46
2019-04-14T05:36:06.252Z,4.54
2019-04-14T05:38:34.405Z,4.65
2019-04-14T05:41:02.727Z,4.77
2019-04-14T05:43:38.403Z,4.69
2019-04-14T05:45:59.091Z,4.85
2019-04-14T05:48:38.070Z,5.07
2019-04-14T05:51:06.281Z,5.12
2019-04-14T05:53:33.259Z,5.18
2019-04-14T05:55:59.995Z,5.26
2019-04-14T05:58:27.510Z,5.52
2019-04-14T06:00:54.362Z,5.54
2019-04-14T06:03:21.366Z,5.56
2019-04-14T06:05:51.142Z,5.56
2019-04-14T06:08:18.061Z,5.52
2019-04-14T06:10:44.765Z,5.52
2019-04-14T06:13:18.104Z,5.41
2019-04-14T06:15:44.939Z,5.41
2019-04-14T06:18:11.903Z,5.23
2019-04-14T06:20:38.757Z,5.17
2019-04-14T06:23:05.882Z,5.25
2019-04-14T06:25:32.594Z,5.14
2019-04-14T06:27:59.296Z,5.14
2019-04-14T06:31:00.799Z,5.32
2019-04-14T06:33:56.282Z,5.32
2019-04-14T06:36:53.087Z,5.42
2019-04-14T06:39:25.564Z,5.33
2019-04-14T06:41:52.365Z,5.37
2019-04-14T06:44:19.038Z,5.57
2019-04-14T06:46:46.217Z,5.52
2019-04-14T06:49:12.964Z,5.52
2019-04-14T06:51:39.721Z,5.69
2019-04-14T06:54:06.852Z,5.69
2019-04-14T06:56:33.589Z,5.54
2019-04-14T06:59:00.515Z,5.32
2019-04-14T07:01:27.334Z,5.31
2019-04-14T07:04:00.141Z,5.31
2019-04-14T07:06:31.166Z,5.48
2019-04-14T07:08:57.912Z,5.62
2019-04-14T07:11:31.718Z,5.69
2019-04-14T07:14:00.421Z,5.74
2019-04-14T07:16:29.289Z,5.91
2019-04-14T07:18:56.030Z,5.91
2019-04-14T07:21:24.237Z,5.92
2019-04-14T07:23:51.528Z,6.01
2019-04-14T07:26:20.281Z,6.01
2019-04-14T07:28:56.683Z,5.97
2019-04-14T07:31:30.303Z,6.04
2019-04-14T07:34:17.435Z,6.19
2019-04-14T07:37:03.811Z,6.19
2019-04-14T07:40:02.781Z,6.27
2019-04-14T07:42:39.016Z,6.22
2019-04-14T07:45:24.858Z,6.22
2019-04-14T07:48:13.775Z,6.06
2019-04-14T07:51:01.581Z,6.37
2019-04-14T07:53:48.311Z,6.64
2019-04-14T07:56:40.294Z,6.64
2019-04-14T07:59:38.374Z,6.64
2019-04-14T08:02:25.922Z,6.59
2019-04-14T08:05:12.374Z,6.45
2019-04-14T08:07:39.261Z,6.43
2019-04-14T08:10:06.631Z,6.59
2019-04-14T08:12:35.448Z,6.59
2019-04-14T08:15:04.630Z,6.71
2019-04-14T08:17:31.463Z,6.80
2019-04-14T08:19:58.265Z,6.98
2019-04-14T08:22:25.027Z,7.00
2019-04-14T08:24:51.942Z,7.00
2019-04-14T08:27:18.761Z,7.23
2019-04-14T08:29:46.955Z,7.23
2019-04-14T08:32:15.265Z,7.21
2019-04-14T08:34:42.179Z,7.27
2019-04-14T08:37:09.829Z,7.37
2019-04-14T08:39:36.686Z,7.26
2019-04-14T08:42:24.517Z,7.23
2019-04-14T08:44:52.225Z,7.34
2019-04-14T08:47:39.483Z,7.34
2019-04-14T08:50:19.329Z,7.47
2019-04-14T08:52:51.621Z,7.04
2019-04-14T08:55:40.797Z,7.04
2019-04-14T08:58:18.956Z,7.20
2019-04-14T09:01:11.351Z,7.40
2019-04-14T09:04:02.266Z,7.40
2019-04-14T09:06:47.546Z,7.26
2019-04-14T09:09:26.027Z,7.50
2019-04-14T09:11:56.505Z,7.62
2019-04-14T09:14:23.518Z,7.62
2019-04-14T09:16:50.304Z,7.70
2019-04-14T09:19:17.213Z,7.94
2019-04-14T09:21:45.853Z,7.94
2019-04-14T09:24:13.609Z,7.83
2019-04-14T09:26:40.511Z,7.83
2019-04-14T09:29:07.359Z,7.94
2019-04-14T09:31:37.079Z,8.11
2019-04-14T09:34:03.892Z,8.11
2019-04-14T09:36:31.730Z,8.01
2019-04-14T09:38:58.487Z,8.33
2019-04-14T09:41:28.211Z,8.62
2019-04-14T09:43:55.087Z,8.79
2019-04-14T09:46:21.872Z,8.87
2019-04-14T09:48:48.639Z,8.49
2019-04-14T09:51:15.461Z,8.55
2019-04-14T09:53:42.529Z,8.53
2019-04-14T09:56:09.223Z,8.65
2019-04-14T09:58:35.989Z,8.68
2019-04-14T10:01:02.865Z,8.71
2019-04-14T10:03:29.752Z,8.85
2019-04-14T10:05:56.517Z,8.73
2019-04-14T10:08:23.273Z,8.67
2019-04-14T10:10:50.010Z,8.76
2019-04-14T10:13:16.760Z,8.78
2019-04-14T10:15:43.662Z,8.81
2019-04-14T10:18:10.547Z,9.16
2019-04-14T10:20:37.280Z,9.33
2019-04-14T10:23:04.657Z,9.34
2019-04-14T10:25:31.431Z,9.46
2019-04-14T10:27:58.198Z,9.46
2019-04-14T10:30:24.943Z,9.51
2019-04-14T10:32:51.784Z,9.56
2019-04-14T10:35:18.519Z,9.57
2019-04-14T10:37:45.261Z,9.73
2019-04-14T10:40:12.023Z,9.76
2019-04-14T10:42:41.574Z,10.15
2019-04-14T10:45:11.622Z,10.06
2019-04-14T10:47:38.419Z,10.11
2019-04-14T10:50:06.487Z,10.27
2019-04-14T10:52:33.278Z,10.16
2019-04-14T10:55:00.017Z,9.87
2019-04-14T10:57:26.883Z,10.06
2019-04-14T10:59:53.691Z,9.29
2019-04-14T11:02:21.568Z,10.12
2019-04-14T11:04:48.572Z,10.06
2019-04-14T11:07:21.851Z,9.90
2019-04-14T11:09:48.703Z,9.59
2019-04-14T11:12:18.773Z,9.77
2019-04-14T11:14:48.388Z,9.63
2019-04-14T11:17:15.119Z,9.71
2019-04-14T11:19:45.251Z,9.65
2019-04-14T11:22:11.989Z,9.56
2019-04-14T11:24:38.724Z,9.48
2019-04-14T11:27:05.461Z,9.64
2019-04-14T11:29:33.458Z,10.02
2019-04-14T11:32:37.892Z,10.50
2019-04-14T11:35:27.069Z,10.84
2019-04-14T11:38:11.994Z,11.03
2019-04-14T11:40:42.064Z,11.24
2019-04-14T11:43:08.854Z,11.53
2019-04-14T11:45:35.596Z,11.13
2019-04-14T11:48:02.433Z,11.28
2019-04-14T11:50:29.326Z,11.36
2019-04-14T11:52:56.122Z,11.58
2019-04-14T11:55:26.553Z,11.51
2019-04-14T11:57:53.286Z,11.69
2019-04-14T12:00:45.739Z,11.35
2019-04-14T12:03:22.152Z,11.11
2019-04-14T12:06:02.182Z,11.43
2019-04-14T12:08:39.930Z,11.60
2019-04-14T12:11:06.705Z,11.71
2019-04-14T12:13:33.513Z,11.95
2019-04-14T12:16:02.504Z,12.29
2019-04-14T12:18:29.253Z,12.39
2019-04-14T12:20:55.986Z,12.65
2019-04-14T12:23:22.741Z,12.64
2019-04-14T12:25:49.443Z,12.01
2019-04-14T12:28:17.245Z,12.00
2019-04-14T12:30:44.444Z,11.65
2019-04-14T12:33:15.226Z,11.71
2019-04-14T12:35:44.226Z,12.44
2019-04-14T12:38:11.656Z,13.09
2019-04-14T12:40:40.353Z,12.61
2019-04-14T12:43:32.567Z,12.43
2019-04-14T12:46:28.384Z,12.50
2019-04-14T12:49:03.024Z,11.84
2019-04-14T12:51:38.448Z,12.34
2019-04-14T12:54:05.208Z,12.76
2019-04-14T12:56:31.926Z,12.88
2019-04-14T12:59:18.311Z,13.42
2019-04-14T13:01:52.084Z,13.75
2019-04-14T13:04:18.791Z,13.74
2019-04-14T13:06:45.556Z,13.85
2019-04-14T13:09:14.576Z,13.12
2019-04-14T13:11:41.191Z,13.18
2019-04-14T13:14:07.904Z,13.29
2019-04-14T13:16:34.615Z,13.38
2019-04-14T13:19:01.327Z,13.05
2019-04-14T13:21:31.149Z,13.19
2019-04-14T13:23:57.880Z,13.63
2019-04-14T13:26:24.590Z,13.69
2019-04-14T13:28:51.701Z,13.74
2019-04-14T13:31:18.405Z,13.55
2019-04-14T13:33:45.105Z,12.79
2019-04-14T13:36:11.846Z,12.97
2019-04-14T13:38:38.604Z,13.46
2019-04-14T13:41:05.346Z,13.80
2019-04-14T13:43:32.071Z,14.40
2019-04-14T13:46:00.856Z,15.11
2019-04-14T13:48:27.550Z,15.23
2019-04-14T13:50:55.015Z,15.14
2019-04-14T13:53:21.741Z,15.32
2019-04-14T13:55:48.497Z,14.59
2019-04-14T13:58:15.240Z,14.42
2019-04-14T14:00:42.003Z,14.68
2019-04-14T14:03:08.693Z,13.67
2019-04-14T14:05:35.407Z,13.90
2019-04-14T14:08:02.169Z,14.10
2019-04-14T14:10:30.304Z,14.49
2019-04-14T14:13:07.545Z,14.52
2019-04-14T14:16:05.784Z,14.51
2019-04-14T14:18:52.255Z,14.78
2019-04-14T14:21:39.104Z,13.90
2019-04-14T14:24:26.790Z,14.00
2019-04-14T14:26:53.555Z,14.61
2019-04-14T14:29:20.396Z,14.99
2019-04-14T14:31:47.209Z,15.33
2019-04-14T14:34:14.239Z,15.57
2019-04-14T14:36:40.953Z,15.33
2019-04-14T14:39:09.275Z,15.12
2019-04-14T14:41:36.070Z,14.88
2019-04-14T14:44:02.834Z,15.05
2019-04-14T14:46:38.598Z,15.25
2019-04-14T14:49:12.751Z,15.62
2019-04-14T14:51:51.058Z,15.08
2019-04-14T14:54:17.803Z,14.69
2019-04-14T14:56:44.547Z,15.36
2019-04-14T14:59:11.229Z,15.42
2019-04-14T15:01:39.621Z,15.57
2019-04-14T15:04:06.356Z,14.98
2019-04-14T15:06:33.197Z,15.14
2019-04-14T15:08:59.971Z,15.59
2019-04-14T15:11:26.671Z,15.49
2019-04-14T15:13:53.533Z,15.08
2019-04-14T15:16:20.430Z,15.01
2019-04-14T15:18:47.139Z,15.05
2019-04-14T15:21:14.138Z,14.99
2019-04-14T15:23:41.172Z,15.00
2019-04-14T15:26:08.245Z,14.75
2019-04-14T15:28:35.051Z,14.53
2019-04-14T15:31:02.131Z,15.04
2019-04-14T15:33:28.988Z,15.40
2019-04-14T15:35:55.702Z,15.53
2019-04-14T15:38:24.459Z,15.81
2019-04-14T15:40:51.403Z,15.88
2019-04-14T15:43:18.142Z,15.85
2019-04-14T15:45:45.183Z,15.93
2019-04-14T15:48:11.916Z,16.11
2019-04-14T15:50:38.762Z,15.96
2019-04-14T15:53:05.492Z,15.59
2019-04-14T15:55:32.177Z,15.13
2019-04-14T15:58:07.057Z,14.95
2019-04-14T16:00:53.411Z,15.12
2019-04-14T16:03:38.348Z,15.63
2019-04-14T16:06:26.982Z,15.85
2019-04-14T16:09:13.463Z,15.67
2019-04-14T16:11:56.604Z,15.70
2019-04-14T16:14:44.432Z,15.12
2019-04-14T16:17:30.234Z,14.44
2019-04-14T16:20:03.521Z,14.86
2019-04-14T16:22:30.358Z,14.73
2019-04-14T16:24:57.130Z,14.53
2019-04-14T16:27:30.701Z,14.20
2019-04-14T16:30:06.161Z,14.63
2019-04-14T16:32:52.372Z,14.93
2019-04-14T16:35:22.260Z,14.83
2019-04-14T16:37:49.001Z,14.69
2019-04-14T16:40:18.211Z,14.34
2019-04-14T16:42:45.013Z,14.89
2019-04-14T16:45:11.713Z,14.61
2019-04-14T16:47:41.169Z,14.59
2019-04-14T16:50:07.891Z,14.66
2019-04-14T16:52:48.282Z,14.85
2019-04-14T16:55:20.650Z,14.63
2019-04-14T16:58:05.870Z,14.49
2019-04-14T17:00:37.275Z,14.43
2019-04-14T17:03:04.069Z,14.45
2019-04-14T17:05:30.806Z,14.40
2019-04-14T17:07:57.531Z,14.35
2019-04-14T17:10:24.251Z,14.55
2019-04-14T17:12:50.977Z,14.12
2019-04-14T17:15:43.395Z,13.82
2019-04-14T17:18:16.487Z,14.11
2019-04-14T17:20:55.573Z,14.28
2019-04-14T17:23:33.451Z,14.12
2019-04-14T17:26:09.391Z,13.51
2019-04-14T17:28:56.014Z,12.99
2019-04-14T17:31:42.166Z,13.07
2019-04-14T17:34:17.965Z,13.07
2019-04-14T17:36:54.817Z,12.95
2019-04-14T17:39:35.684Z,12.90
2019-04-14T17:42:16.684Z,12.88
2019-04-14T17:45:12.048Z,12.84
2019-04-14T17:47:48.999Z,12.80
2019-04-14T17:50:26.039Z,12.67
2019-04-14T17:53:15.585Z,12.73
2019-04-14T17:56:07.850Z,12.36
2019-04-14T17:58:46.938Z,12.04
2019-04-14T18:01:39.625Z,11.97
2019-04-14T18:04:10.539Z,11.74
2019-04-14T18:06:52.996Z,11.60
2019-04-14T18:09:34.281Z,11.67
2019-04-14T18:12:12.915Z,11.64
2019-04-14T18:14:51.282Z,11.55
2019-04-14T18:17:25.824Z,11.66
2019-04-14T18:20:00.857Z,11.75
2019-04-14T18:22:30.397Z,11.79
2019-04-14T18:24:57.400Z,11.75
2019-04-14T18:27:24.501Z,11.69
2019-04-14T18:29:59.271Z,11.66
2019-04-14T18:32:33.013Z,11.58
2019-04-14T18:35:25.418Z,11.51
2019-04-14T18:38:12.179Z,11.44
2019-04-14T18:41:05.917Z,11.50
2019-04-14T18:43:52.729Z,11.50
2019-04-14T18:46:57.372Z,11.35
2019-04-14T18:49:43.872Z,11.21
2019-04-14T18:52:21.437Z,11.21
2019-04-14T18:54:56.706Z,11.17
2019-04-14T18:57:28.365Z,11.15
2019-04-14T19:00:33.357Z,11.03
2019-04-14T19:03:00.424Z,10.91
2019-04-14T19:05:29.047Z,10.73
2019-04-14T19:07:57.681Z,10.68
2019-04-14T19:10:24.390Z,10.60
2019-04-14T19:12:58.923Z,10.55
2019-04-14T19:15:39.423Z,10.55
2019-04-14T19:18:26.583Z,10.51
2019-04-14T19:20:59.541Z,10.37
2019-04-14T19:23:26.320Z,10.42
2019-04-14T19:25:53.043Z,10.46
2019-04-14T19:28:19.751Z,10.42
2019-04-14T19:30:46.444Z,10.29
2019-04-14T19:33:13.328Z,10.34
2019-04-14T19:35:43.186Z,10.35
2019-04-14T19:38:12.084Z,10.16
2019-04-14T19:40:40.727Z,10.08
2019-04-14T19:43:07.441Z,10.15
2019-04-14T19:45:34.148Z,10.20
2019-04-14T19:48:00.878Z,10.12
2019-04-14T19:50:27.577Z,10.04
2019-04-14T19:52:57.207Z,10.03
2019-04-14T19:55:23.892Z,9.90
2019-04-14T19:57:50.597Z,9.89
2019-04-14T20:00:20.732Z,9.72
2019-04-14T20:02:47.519Z,9.75
2019-04-14T20:05:17.277Z,9.76
2019-04-14T20:07:43.978Z,9.76
2019-04-14T20:10:12.241Z,9.76
2019-04-14T20:12:38.982Z,9.71
2019-04-14T20:15:05.914Z,9.60
2019-04-14T20:17:49.399Z,9.64
2019-04-14T20:20:34.598Z,9.52
2019-04-14T20:23:10.351Z,9.50
2019-04-14T20:25:46.567Z,9.41
2019-04-14T20:28:19.452Z,9.32
2019-04-14T20:30:49.859Z,9.31
2019-04-14T20:33:16.590Z,9.24
2019-04-14T20:35:43.421Z,9.18
2019-04-14T20:38:10.183Z,9.12
2019-04-14T20:40:36.958Z,9.15
2019-04-14T20:43:03.762Z,9.02
2019-04-14T20:45:32.361Z,9.10
2019-04-14T20:47:59.108Z,9.14
2019-04-14T20:50:25.805Z,9.15
2019-04-14T20:52:52.499Z,9.20
2019-04-14T20:55:19.196Z,9.14
2019-04-14T20:57:45.900Z,9.08
2019-04-14T21:00:12.709Z,9.07
2019-04-14T21:02:51.313Z,9.10
2019-04-14T21:05:31.462Z,9.14
2019-04-14T21:08:16.111Z,9.05
2019-04-14T21:10:53.510Z,8.97
2019-04-14T21:13:35.644Z,8.92
2019-04-14T21:16:20.320Z,8.93
2019-04-14T21:18:49.378Z,8.80
2019-04-14T21:21:30.337Z,8.63
2019-04-14T21:24:05.400Z,8.62
2019-04-14T21:26:40.840Z,8.51
2019-04-14T21:29:11.396Z,8.64
2019-04-14T21:31:49.758Z,8.63
2019-04-14T21:34:38.610Z,8.66
2019-04-14T21:37:40.278Z,8.60
2019-04-14T21:40:14.585Z,8.48
2019-04-14T21:42:41.766Z,8.34
2019-04-14T21:45:08.622Z,8.31
2019-04-14T21:47:38.597Z,8.40
2019-04-14T21:50:12.312Z,8.29
2019-04-14T21:52:49.903Z,8.18
2019-04-14T21:55:16.878Z,8.16
2019-04-14T21:58:04.495Z,8.08
2019-04-14T22:01:27.896Z,7.94
2019-04-14T22:04:08.030Z,7.88
2019-04-14T22:06:37.216Z,7.93
2019-04-14T22:09:07.190Z,7.89
2019-04-14T22:11:33.960Z,7.83
2019-04-14T22:14:02.020Z,7.84
2019-04-14T22:16:29.148Z,7.88
2019-04-14T22:18:58.111Z,7.66
2019-04-14T22:21:24.918Z,7.76
2019-04-14T22:24:01.258Z,7.69
2019-04-14T22:26:26.390Z,7.74
2019-04-14T22:28:52.224Z,7.69
2019-04-14T22:31:18.936Z,7.74
2019-04-14T22:33:45.784Z,7.79
2019-04-14T22:36:12.696Z,7.70
2019-04-14T22:38:39.762Z,7.63
2019-04-14T22:41:06.455Z,7.50
2019-04-14T22:43:33.182Z,7.45
2019-04-14T22:45:59.992Z,7.46
2019-04-14T22:48:26.772Z,7.53
2019-04-14T22:50:53.462Z,7.44
2019-04-14T22:53:20.170Z,7.36
2019-04-14T22:55:46.950Z,7.43
2019-04-14T22:58:13.749Z,7.48
2019-04-14T23:01:02.691Z,7.39
2019-04-14T23:03:54.889Z,7.35
2019-04-14T23:06:43.952Z,7.33
2019-04-14T23:09:28.116Z,7.31
2019-04-14T23:12:06.039Z,7.25
2019-04-14T23:14:39.912Z,7.33
2019-04-14T23:17:25.108Z,7.30
2019-04-14T23:20:14.631Z,7.28
2019-04-14T23:22:59.568Z,7.25
2019-04-14T23:25:26.367Z,7.25
2019-04-14T23:27:53.218Z,7.22
2019-04-14T23:30:19.972Z,7.18
2019-04-14T23:32:46.707Z,7.27
2019-04-14T23:35:13.409Z,7.16
2019-04-14T23:37:40.159Z,7.12
2019-04-14T23:40:07.620Z,7.05
2019-04-14T23:42:37.202Z,7.07
2019-04-14T23:45:06.733Z,7.04
2019-04-14T23:47:33.462Z,7.02
2019-04-14T23:50:00.466Z,6.93
2019-04-14T23:52:27.189Z,6.92
2019-04-14T23:54:53.930Z,6.93
2019-04-14T23:57:20.962Z,6.98
2019-04-14T23:59:47.708Z,7.01
